Emerald Leader — C6WP4 — position and weather

sailwx.info

Track history (hours):
 
Tides and Currents Weather Stations Pressure Air Temp Water Temp Dewpoint Dewpoint Depression Visibility Wind Speed Wind Dir Waves Ship Positions

Emerald Leader

Last reported at 2018-Aug-14 17:10 UTC. Time now 2018-Aug-19 15:19 UTC.
Position N 37°43' E 024°18'.

Length 176 m; draft 8 m.

Type: Cargo ship. MMSI: 308688000.

Date/timePositionNaut miles runAvg speedWind from/ knotsBaromVisibWave heightAir tempDewpointWater temp
2018-Aug-14 17:10N 37°43' E 024°18'915.5
2018-Aug-14 16:34N 37°37' E 024°10'1815.1
2018-Aug-14 15:23N 37°37' E 023°47'614.7
2018-Aug-14 15:00N 37°41' E 023°42'815.0
2018-Aug-14 14:30N 37°48' E 023°38'714.8
2018-Aug-14 14:00N 37°55' E 023°36'2 3.7
2018-Aug-14 13:29N 37°57' E 023°36'0 0.0
2018-Aug-14 12:59N 37°57' E 023°36'0 0.0
2018-Aug-14 12:29N 37°57' E 023°36'0 0.0
2018-Aug-14 11:59N 37°57' E 023°36'0 0.0
2018-Aug-14 11:29N 37°57' E 023°36'0 0.0
2018-Aug-14 10:59N 37°57' E 023°36'0 0.0
2018-Aug-14 10:29N 37°57' E 023°36'0 0.0
2018-Aug-14 09:59N 37°57' E 023°36'0 0.0
2018-Aug-14 09:29N 37°57' E 023°36'0 0.0
2018-Aug-14 08:56N 37°57' E 023°36'0 0.0
2018-Aug-14 08:29N 37°57' E 023°36'0 0.0
2018-Aug-14 07:53N 37°57' E 023°36'0 0.0
2018-Aug-14 07:29N 37°57' E 023°36'0 0.0
2018-Aug-14 06:59N 37°57' E 023°36'0 0.0
2018-Aug-14 06:29N 37°57' E 023°36'0 0.0
2018-Aug-14 05:56N 37°57' E 023°36'0 0.0
2018-Aug-14 05:29N 37°57' E 023°36'0 0.0
2018-Aug-14 04:59N 37°57' E 023°36'1 1.1
2018-Aug-14 04:30N 37°57' E 023°36'3 5.6
2018-Aug-14 04:00N 37°54' E 023°36'2 3.4
2018-Aug-14 03:30N 37°53' E 023°36'3 5.9
2018-Aug-14 03:00N 37°51' E 023°39'3 7.0
2018-Aug-14 02:30N 37°48' E 023°41'3 6.8
2018-Aug-14 02:00N 37°44' E 023°43'3 6.9
2018-Aug-14 01:30N 37°42' E 023°45'4 7.8
2018-Aug-14 01:00N 37°38' E 023°45'611.7
2018-Aug-14 00:30N 37°32' E 023°44'611.8
2018-Aug-14 00:00N 37°26' E 023°43'812.1
2018-Aug-13 23:19N 37°18' E 023°41'38812.8
2018-Aug-12 16:55N 37°58' E 015°33'614.8
2018-Aug-12 16:30N 38°04' E 015°34'815.1
2018-Aug-12 15:59N 38°12' E 015°36'713.1
2018-Aug-12 15:26N 38°18' E 015°40'512.0
2018-Aug-12 15:00N 38°22' E 015°36'917.2
2018-Aug-12 14:30N 38°29' E 015°28'10615.8
2018-Aug-12 07:48N 39°45' E 013°54'1615.9
2018-Aug-12 06:47N 39°57' E 013°39'515.7
2018-Aug-12 06:28N 40°00' E 013°35'715.8
2018-Aug-12 06:01N 40°05' E 013°28'1615.5
2018-Aug-12 05:00N 40°17' E 013°14'815.3
2018-Aug-12 04:31N 40°22' E 013°07'815.2
2018-Aug-12 04:01N 40°27' E 012°60'2015.5
2018-Aug-12 02:43N 40°42' E 012°41'2416.0
2018-Aug-12 01:13N 40°59' E 012°20'316.0
2018-Aug-12 01:00N 41°01' E 012°16'1016.0
2018-Aug-12 00:24N 41°08' E 012°07'615.8
2018-Aug-12 00:00N 41°12' E 012°01'1715.8
2018-Aug-11 22:56N 41°25' E 011°46'1015.9
2018-Aug-11 22:19N 41°32' E 011°37'516.0
2018-Aug-11 22:01N 41°36' E 011°32'815.9
2018-Aug-11 21:31N 41°41' E 011°25'1015.7
2018-Aug-11 20:51N 41°48' E 011°15'515.4
2018-Aug-11 20:31N 41°52' E 011°10'815.4
2018-Aug-11 20:01N 41°58' E 011°03'1115.3
2018-Aug-11 19:17N 42°06' E 010°52'1315.5
2018-Aug-11 18:24N 42°15' E 010°39'715.6
2018-Aug-11 17:59N 42°20' E 010°33'815.9
2018-Aug-11 17:30N 42°25' E 010°26'3814.4
2018-Aug-11 14:50N 42°60' E 010°03'515.7
2018-Aug-11 14:31N 43°05' E 010°05'815.5
2018-Aug-11 14:00N 43°13' E 010°06'815.3
2018-Aug-11 13:30N 43°20' E 010°08'815.2
2018-Aug-11 13:01N 43°28' E 010°10'612.5
2018-Aug-11 12:30N 43°32' E 010°16'2 5.0
2018-Aug-11 12:00N 43°34' E 010°18'1 1.3
2018-Aug-11 11:29N 43°35' E 010°18'0 0.0
2018-Aug-11 10:59N 43°35' E 010°18'0 0.0
2018-Aug-11 10:29N 43°35' E 010°18'0 0.0
2018-Aug-11 09:59N 43°35' E 010°18'0 0.0
2018-Aug-11 09:29N 43°35' E 010°18'0 0.0
2018-Aug-11 08:59N 43°35' E 010°18'0 0.0
2018-Aug-11 08:29N 43°35' E 010°18'0 0.0
2018-Aug-11 07:59N 43°35' E 010°18'0 0.0
2018-Aug-11 07:26N 43°35' E 010°18'0 0.0
2018-Aug-11 06:59N 43°35' E 010°18'0 0.0
2018-Aug-11 06:29N 43°35' E 010°18'0 0.0
2018-Aug-11 05:59N 43°35' E 010°18'0 0.0
2018-Aug-11 05:29N 43°35' E 010°18'0 0.0
2018-Aug-11 04:59N 43°35' E 010°18'0 0.0
2018-Aug-11 04:29N 43°35' E 010°18'0 0.0
2018-Aug-11 03:59N 43°35' E 010°18'0 0.0
2018-Aug-11 03:29N 43°35' E 010°18'0 0.0
2018-Aug-11 02:59N 43°35' E 010°18'0 0.0
2018-Aug-11 02:29N 43°35' E 010°18'0 0.0
2018-Aug-11 01:59N 43°35' E 010°18'0 0.0
2018-Aug-11 01:29N 43°35' E 010°18'0 0.0
2018-Aug-11 00:59N 43°35' E 010°18'0 0.0
2018-Aug-11 00:29N 43°35' E 010°18'0 0.0
2018-Aug-10 23:59N 43°35' E 010°18'0 0.0
2018-Aug-10 23:29N 43°35' E 010°18'0 0.0
2018-Aug-10 22:50N 43°35' E 010°18'0 0.0
2018-Aug-10 22:29N 43°35' E 010°18'0 0.0
2018-Aug-10 21:59N 43°35' E 010°18'0 0.0
2018-Aug-10 21:29N 43°35' E 010°18'0 0.0
2018-Aug-10 20:59N 43°35' E 010°18'0 0.0
2018-Aug-10 20:29N 43°35' E 010°18'0 0.0
2018-Aug-10 19:59N 43°35' E 010°18'0 0.0
2018-Aug-10 19:29N 43°35' E 010°18'0 0.0
2018-Aug-10 18:59N 43°35' E 010°18'1 2.5
2018-Aug-10 18:30N 43°34' E 010°18'3 6.2
2018-Aug-10 18:01N 43°31' E 010°16'2 3.5
2018-Aug-10 17:31N 43°30' E 010°14'713.6
2018-Aug-10 17:00N 43°25' E 010°08'815.5
2018-Aug-10 16:30N 43°19' E 010°01'815.4
2018-Aug-10 16:00N 43°16' E 009°51'815.9
2018-Aug-10 15:31N 43°14' E 009°40'815.3
2018-Aug-10 14:57N 43°11' E 009°30'715.6
2018-Aug-10 14:30N 43°08' E 009°21'815.8
2018-Aug-10 13:59N 43°06' E 009°10'32215.0
2018-Aug-09 16:29N 41°12' E 002°23'714.4
2018-Aug-09 16:00N 41°09' E 002°15'714.3
2018-Aug-09 15:31N 41°09' E 002°05'815.3
2018-Aug-09 15:01N 41°07' E 001°56'815.6
2018-Aug-09 14:31N 41°05' E 001°46'815.7
2018-Aug-09 14:00N 41°04' E 001°35'119 4.6
2018-Aug-08 12:23N 39°38' W 000°13'2 0.3
2018-Aug-08 03:53N 39°36' W 000°12'3 5.8
2018-Aug-08 03:17N 39°32' W 000°10'6611.3
2018-Aug-07 21:30N 38°31' E 000°19'1113.1
2018-Aug-07 20:40N 38°22' E 000°11'313.1
2018-Aug-07 20:28N 38°19' E 000°10'613.1
2018-Aug-07 20:00N 38°15' E 000°05'813.8
2018-Aug-07 19:23N 38°08' W 000°01'513.9
2018-Aug-07 19:00N 38°03' W 000°05'714.1
2018-Aug-07 18:30N 37°57' W 000°10'914.1
2018-Aug-07 17:52N 37°50' W 000°17'513.9
2018-Aug-07 17:29N 37°45' W 000°20'713.9
2018-Aug-07 17:00N 37°40' W 000°25'713.9
2018-Aug-07 16:30N 37°34' W 000°30'713.6
2018-Aug-07 15:58N 37°29' W 000°36'613.8
2018-Aug-07 15:30N 37°25' W 000°42'914.0
2018-Aug-07 14:54N 37°19' W 000°50'716.5
2018-Aug-07 14:28N 37°15' W 000°57'612.8
2018-Aug-07 14:00N 37°11' W 001°03'0 0.3
2018-Aug-07 13:29N 37°11' W 001°03'0 0.1
2018-Aug-07 11:56N 37°11' W 001°03'2 0.4
2018-Aug-07 06:18N 37°09' W 001°05'210 9.5
2018-Aug-06 08:13N 36°01' W 005°11'313.3
2018-Aug-06 08:01N 36°00' W 005°15'815.3
2018-Aug-06 07:30N 35°58' W 005°24'10213.9
2018-Aug-06 00:11N 36°09' W 007°29'314.3
2018-Aug-06 00:00N 36°10' W 007°32'5115.0
2018-Aug-05 20:36N 36°25' W 008°33'215.7
2018-Aug-05 20:28N 36°25' W 008°35'715.6
2018-Aug-05 20:00N 36°27' W 008°44'815.7
2018-Aug-05 19:30N 36°29' W 008°53'815.4
2018-Aug-05 19:00N 36°31' W 009°02'815.2
2018-Aug-05 18:30N 36°33' W 009°12'714.4
2018-Aug-05 18:00N 36°37' W 009°20'715.0
2018-Aug-05 17:30N 36°42' W 009°26'815.0
2018-Aug-05 17:00N 36°48' W 009°32'815.2
2018-Aug-05 16:30N 36°55' W 009°34'815.0
2018-Aug-05 16:00N 37°02' W 009°37'714.9
2018-Aug-05 15:30N 37°10' W 009°39'815.8
2018-Aug-05 15:00N 37°17' W 009°41'815.6
2018-Aug-05 14:30N 37°25' W 009°44'1615.6
2018-Aug-05 13:30N 37°40' W 009°48'815.3
2018-Aug-05 13:00N 37°48' W 009°50'815.3
2018-Aug-05 12:30N 37°55' W 009°52'715.0
2018-Aug-05 12:00N 38°02' W 009°54'815.0
2018-Aug-05 11:30N 38°10' W 009°56'714.8
2018-Aug-05 11:00N 38°17' W 009°58'714.9
2018-Aug-05 10:30N 38°24' W 010°00'815.1
2018-Aug-05 10:00N 38°32' W 010°03'815.1
2018-Aug-05 09:30N 38°39' W 010°05'814.8
2018-Aug-05 09:00N 38°46' W 010°06'715.1
2018-Aug-05 08:31N 38°54' W 010°05'815.3
2018-Aug-05 08:00N 39°01' W 010°03'714.6
2018-Aug-05 07:30N 39°08' W 010°02'815.3
2018-Aug-05 07:00N 39°16' W 009°60'815.4
2018-Aug-05 06:30N 39°23' W 009°57'815.1
2018-Aug-05 06:00N 39°30' W 009°54'815.1
2018-Aug-05 05:30N 39°38' W 009°51'815.0
2018-Aug-05 05:00N 39°45' W 009°50'815.0
2018-Aug-05 04:30N 39°52' W 009°47'815.1
2018-Aug-05 04:00N 39°60' W 009°45'1615.1
2018-Aug-05 02:55N 40°16' W 009°39'615.2
2018-Aug-05 02:30N 40°22' W 009°38'815.3
2018-Aug-05 01:58N 40°30' W 009°35'1715.0
2018-Aug-05 00:52N 40°46' W 009°31'515.3
2018-Aug-05 00:30N 40°51' W 009°29'815.3
2018-Aug-05 00:00N 40°59' W 009°27'815.6
2018-Aug-04 23:31N 41°06' W 009°24'915.3
2018-Aug-04 22:57N 41°14' W 009°21'715.5
2018-Aug-04 22:30N 41°21' W 009°19'815.5
2018-Aug-04 22:00N 41°29' W 009°18'3515.2
2018-Aug-04 19:41N 42°03' W 009°05'315.2
2018-Aug-04 19:31N 42°05' W 009°03'714.6
2018-Aug-04 19:01N 42°09' W 008°55'610.8
2018-Aug-04 18:30N 42°13' W 008°49'  
Track history (hours):
 
Tides and Currents Weather Stations Pressure Air Temp Water Temp Dewpoint Dewpoint Depression Visibility Wind Speed Wind Dir Waves Ship Positions

Emerald Leader

Last reported at 2018-Aug-14 17:10 UTC. Time now 2018-Aug-19 15:19 UTC.
Position N 37°43' E 024°18'.

Length 176 m; draft 8 m.

Type: Cargo ship. MMSI: 308688000.

Date/timePositionNaut miles runAvg speedWind from/ knotsBaromVisibWave heightAir tempDewpointWater temp
2018-Aug-14 17:10N 37°43' E 024°18'915.5
2018-Aug-14 16:34N 37°37' E 024°10'1815.1
2018-Aug-14 15:23N 37°37' E 023°47'614.7
2018-Aug-14 15:00N 37°41' E 023°42'815.0
2018-Aug-14 14:30N 37°48' E 023°38'714.8
2018-Aug-14 14:00N 37°55' E 023°36'2 3.7
2018-Aug-14 13:29N 37°57' E 023°36'0 0.0
2018-Aug-14 12:59N 37°57' E 023°36'0 0.0
2018-Aug-14 12:29N 37°57' E 023°36'0 0.0
2018-Aug-14 11:59N 37°57' E 023°36'0 0.0
2018-Aug-14 11:29N 37°57' E 023°36'0 0.0
2018-Aug-14 10:59N 37°57' E 023°36'0 0.0
2018-Aug-14 10:29N 37°57' E 023°36'0 0.0
2018-Aug-14 09:59N 37°57' E 023°36'0 0.0
2018-Aug-14 09:29N 37°57' E 023°36'0 0.0
2018-Aug-14 08:56N 37°57' E 023°36'0 0.0
2018-Aug-14 08:29N 37°57' E 023°36'0 0.0
2018-Aug-14 07:53N 37°57' E 023°36'0 0.0
2018-Aug-14 07:29N 37°57' E 023°36'0 0.0
2018-Aug-14 06:59N 37°57' E 023°36'0 0.0
2018-Aug-14 06:29N 37°57' E 023°36'0 0.0
2018-Aug-14 05:56N 37°57' E 023°36'0 0.0
2018-Aug-14 05:29N 37°57' E 023°36'0 0.0
2018-Aug-14 04:59N 37°57' E 023°36'1 1.1
2018-Aug-14 04:30N 37°57' E 023°36'3 5.6
2018-Aug-14 04:00N 37°54' E 023°36'2 3.4
2018-Aug-14 03:30N 37°53' E 023°36'3 5.9
2018-Aug-14 03:00N 37°51' E 023°39'3 7.0
2018-Aug-14 02:30N 37°48' E 023°41'3 6.8
2018-Aug-14 02:00N 37°44' E 023°43'3 6.9
2018-Aug-14 01:30N 37°42' E 023°45'4 7.8
2018-Aug-14 01:00N 37°38' E 023°45'611.7
2018-Aug-14 00:30N 37°32' E 023°44'611.8
2018-Aug-14 00:00N 37°26' E 023°43'812.1
2018-Aug-13 23:19N 37°18' E 023°41'38812.8
2018-Aug-12 16:55N 37°58' E 015°33'614.8
2018-Aug-12 16:30N 38°04' E 015°34'815.1
2018-Aug-12 15:59N 38°12' E 015°36'713.1
2018-Aug-12 15:26N 38°18' E 015°40'512.0
2018-Aug-12 15:00N 38°22' E 015°36'917.2
2018-Aug-12 14:30N 38°29' E 015°28'10615.8
2018-Aug-12 07:48N 39°45' E 013°54'1615.9
2018-Aug-12 06:47N 39°57' E 013°39'515.7
2018-Aug-12 06:28N 40°00' E 013°35'715.8
2018-Aug-12 06:01N 40°05' E 013°28'1615.5
2018-Aug-12 05:00N 40°17' E 013°14'815.3
2018-Aug-12 04:31N 40°22' E 013°07'815.2
2018-Aug-12 04:01N 40°27' E 012°60'2015.5
2018-Aug-12 02:43N 40°42' E 012°41'2416.0
2018-Aug-12 01:13N 40°59' E 012°20'316.0
2018-Aug-12 01:00N 41°01' E 012°16'1016.0
2018-Aug-12 00:24N 41°08' E 012°07'615.8
2018-Aug-12 00:00N 41°12' E 012°01'1715.8
2018-Aug-11 22:56N 41°25' E 011°46'1015.9
2018-Aug-11 22:19N 41°32' E 011°37'516.0
2018-Aug-11 22:01N 41°36' E 011°32'815.9
2018-Aug-11 21:31N 41°41' E 011°25'1015.7
2018-Aug-11 20:51N 41°48' E 011°15'515.4
2018-Aug-11 20:31N 41°52' E 011°10'815.4
2018-Aug-11 20:01N 41°58' E 011°03'1115.3
2018-Aug-11 19:17N 42°06' E 010°52'1315.5
2018-Aug-11 18:24N 42°15' E 010°39'715.6
2018-Aug-11 17:59N 42°20' E 010°33'815.9
2018-Aug-11 17:30N 42°25' E 010°26'3814.4
2018-Aug-11 14:50N 42°60' E 010°03'515.7
2018-Aug-11 14:31N 43°05' E 010°05'815.5
2018-Aug-11 14:00N 43°13' E 010°06'815.3
2018-Aug-11 13:30N 43°20' E 010°08'815.2
2018-Aug-11 13:01N 43°28' E 010°10'612.5
2018-Aug-11 12:30N 43°32' E 010°16'2 5.0
2018-Aug-11 12:00N 43°34' E 010°18'1 1.3
2018-Aug-11 11:29N 43°35' E 010°18'0 0.0
2018-Aug-11 10:59N 43°35' E 010°18'0 0.0
2018-Aug-11 10:29N 43°35' E 010°18'0 0.0
2018-Aug-11 09:59N 43°35' E 010°18'0 0.0
2018-Aug-11 09:29N 43°35' E 010°18'0 0.0
2018-Aug-11 08:59N 43°35' E 010°18'0 0.0
2018-Aug-11 08:29N 43°35' E 010°18'0 0.0
2018-Aug-11 07:59N 43°35' E 010°18'0 0.0
2018-Aug-11 07:26N 43°35' E 010°18'0 0.0
2018-Aug-11 06:59N 43°35' E 010°18'0 0.0
2018-Aug-11 06:29N 43°35' E 010°18'0 0.0
2018-Aug-11 05:59N 43°35' E 010°18'0 0.0
2018-Aug-11 05:29N 43°35' E 010°18'0 0.0
2018-Aug-11 04:59N 43°35' E 010°18'0 0.0
2018-Aug-11 04:29N 43°35' E 010°18'0 0.0
2018-Aug-11 03:59N 43°35' E 010°18'0 0.0
2018-Aug-11 03:29N 43°35' E 010°18'0 0.0
2018-Aug-11 02:59N 43°35' E 010°18'0 0.0
2018-Aug-11 02:29N 43°35' E 010°18'0 0.0
2018-Aug-11 01:59N 43°35' E 010°18'0 0.0
2018-Aug-11 01:29N 43°35' E 010°18'0 0.0
2018-Aug-11 00:59N 43°35' E 010°18'0 0.0
2018-Aug-11 00:29N 43°35' E 010°18'0 0.0
2018-Aug-10 23:59N 43°35' E 010°18'0 0.0
2018-Aug-10 23:29N 43°35' E 010°18'0 0.0
2018-Aug-10 22:50N 43°35' E 010°18'0 0.0
2018-Aug-10 22:29N 43°35' E 010°18'0 0.0
2018-Aug-10 21:59N 43°35' E 010°18'0 0.0
2018-Aug-10 21:29N 43°35' E 010°18'0 0.0
2018-Aug-10 20:59N 43°35' E 010°18'0 0.0
2018-Aug-10 20:29N 43°35' E 010°18'0 0.0
2018-Aug-10 19:59N 43°35' E 010°18'0 0.0
2018-Aug-10 19:29N 43°35' E 010°18'0 0.0
2018-Aug-10 18:59N 43°35' E 010°18'1 2.5
2018-Aug-10 18:30N 43°34' E 010°18'3 6.2
2018-Aug-10 18:01N 43°31' E 010°16'2 3.5
2018-Aug-10 17:31N 43°30' E 010°14'713.6
2018-Aug-10 17:00N 43°25' E 010°08'815.5
2018-Aug-10 16:30N 43°19' E 010°01'815.4
2018-Aug-10 16:00N 43°16' E 009°51'815.9
2018-Aug-10 15:31N 43°14' E 009°40'815.3
2018-Aug-10 14:57N 43°11' E 009°30'715.6
2018-Aug-10 14:30N 43°08' E 009°21'815.8
2018-Aug-10 13:59N 43°06' E 009°10'32215.0
2018-Aug-09 16:29N 41°12' E 002°23'714.4
2018-Aug-09 16:00N 41°09' E 002°15'714.3
2018-Aug-09 15:31N 41°09' E 002°05'815.3
2018-Aug-09 15:01N 41°07' E 001°56'815.6
2018-Aug-09 14:31N 41°05' E 001°46'815.7
2018-Aug-09 14:00N 41°04' E 001°35'119 4.6
2018-Aug-08 12:23N 39°38' W 000°13'2 0.3
2018-Aug-08 03:53N 39°36' W 000°12'3 5.8
2018-Aug-08 03:17N 39°32' W 000°10'6611.3
2018-Aug-07 21:30N 38°31' E 000°19'1113.1
2018-Aug-07 20:40N 38°22' E 000°11'313.1
2018-Aug-07 20:28N 38°19' E 000°10'613.1
2018-Aug-07 20:00N 38°15' E 000°05'813.8
2018-Aug-07 19:23N 38°08' W 000°01'513.9
2018-Aug-07 19:00N 38°03' W 000°05'714.1
2018-Aug-07 18:30N 37°57' W 000°10'914.1
2018-Aug-07 17:52N 37°50' W 000°17'513.9
2018-Aug-07 17:29N 37°45' W 000°20'713.9
2018-Aug-07 17:00N 37°40' W 000°25'713.9
2018-Aug-07 16:30N 37°34' W 000°30'713.6
2018-Aug-07 15:58N 37°29' W 000°36'613.8
2018-Aug-07 15:30N 37°25' W 000°42'914.0
2018-Aug-07 14:54N 37°19' W 000°50'716.5
2018-Aug-07 14:28N 37°15' W 000°57'612.8
2018-Aug-07 14:00N 37°11' W 001°03'0 0.3
2018-Aug-07 13:29N 37°11' W 001°03'0 0.1
2018-Aug-07 11:56N 37°11' W 001°03'2 0.4
2018-Aug-07 06:18N 37°09' W 001°05'210 9.5
2018-Aug-06 08:13N 36°01' W 005°11'313.3
2018-Aug-06 08:01N 36°00' W 005°15'815.3
2018-Aug-06 07:30N 35°58' W 005°24'10213.9
2018-Aug-06 00:11N 36°09' W 007°29'314.3
2018-Aug-06 00:00N 36°10' W 007°32'5115.0
2018-Aug-05 20:36N 36°25' W 008°33'215.7
2018-Aug-05 20:28N 36°25' W 008°35'715.6
2018-Aug-05 20:00N 36°27' W 008°44'815.7
2018-Aug-05 19:30N 36°29' W 008°53'815.4
2018-Aug-05 19:00N 36°31' W 009°02'815.2
2018-Aug-05 18:30N 36°33' W 009°12'714.4
2018-Aug-05 18:00N 36°37' W 009°20'715.0
2018-Aug-05 17:30N 36°42' W 009°26'815.0
2018-Aug-05 17:00N 36°48' W 009°32'815.2
2018-Aug-05 16:30N 36°55' W 009°34'815.0
2018-Aug-05 16:00N 37°02' W 009°37'714.9
2018-Aug-05 15:30N 37°10' W 009°39'815.8
2018-Aug-05 15:00N 37°17' W 009°41'815.6
2018-Aug-05 14:30N 37°25' W 009°44'1615.6
2018-Aug-05 13:30N 37°40' W 009°48'815.3
2018-Aug-05 13:00N 37°48' W 009°50'815.3
2018-Aug-05 12:30N 37°55' W 009°52'715.0
2018-Aug-05 12:00N 38°02' W 009°54'815.0
2018-Aug-05 11:30N 38°10' W 009°56'714.8
2018-Aug-05 11:00N 38°17' W 009°58'714.9
2018-Aug-05 10:30N 38°24' W 010°00'815.1
2018-Aug-05 10:00N 38°32' W 010°03'815.1
2018-Aug-05 09:30N 38°39' W 010°05'814.8
2018-Aug-05 09:00N 38°46' W 010°06'715.1
2018-Aug-05 08:31N 38°54' W 010°05'815.3
2018-Aug-05 08:00N 39°01' W 010°03'714.6
2018-Aug-05 07:30N 39°08' W 010°02'815.3
2018-Aug-05 07:00N 39°16' W 009°60'815.4
2018-Aug-05 06:30N 39°23' W 009°57'815.1
2018-Aug-05 06:00N 39°30' W 009°54'815.1
2018-Aug-05 05:30N 39°38' W 009°51'815.0
2018-Aug-05 05:00N 39°45' W 009°50'815.0
2018-Aug-05 04:30N 39°52' W 009°47'815.1
2018-Aug-05 04:00N 39°60' W 009°45'1615.1
2018-Aug-05 02:55N 40°16' W 009°39'615.2
2018-Aug-05 02:30N 40°22' W 009°38'815.3
2018-Aug-05 01:58N 40°30' W 009°35'1715.0
2018-Aug-05 00:52N 40°46' W 009°31'515.3
2018-Aug-05 00:30N 40°51' W 009°29'815.3
2018-Aug-05 00:00N 40°59' W 009°27'815.6
2018-Aug-04 23:31N 41°06' W 009°24'915.3
2018-Aug-04 22:57N 41°14' W 009°21'715.5
2018-Aug-04 22:30N 41°21' W 009°19'815.5
2018-Aug-04 22:00N 41°29' W 009°18'3515.2
2018-Aug-04 19:41N 42°03' W 009°05'315.2
2018-Aug-04 19:31N 42°05' W 009°03'714.6
2018-Aug-04 19:01N 42°09' W 008°55'610.8
2018-Aug-04 18:30N 42°13' W 008°49'  

Dump ship's entire track history